Time;durP1;ratioP1;P1;durP2;ratioP2;P2;SDS_P1;SDS_P2;PMS_P1;PMS_P2;Temp;Humidity;BMP_temperature;BMP_pressure;BME280_temperature;BME280_humidity;BME280_pressure;Samples;Min_cycle;Max_cycle;Signal;HPM_P1;HPM_P2
2021/06/26 00:00:52;;;;;;;10.70;5.82;;;14.80;87.00;;;;;;6279833;22;20015;-78
2021/06/26 00:03:20;;;;;;;9.98;6.10;;;14.80;87.10;;;;;;6282453;22;20075;-78
2021/06/26 00:05:47;;;;;;;12.15;5.75;;;14.80;86.70;;;;;;6282675;22;20024;-78
2021/06/26 00:08:15;;;;;;;10.13;5.63;;;14.80;86.90;;;;;;6279226;22;20023;-77
2021/06/26 00:10:49;;;;;;;8.35;5.50;;;14.80;87.00;;;;;;6280135;22;20078;-77
2021/06/26 00:13:20;;;;;;;10.95;5.18;;;14.70;87.10;;;;;;6281713;22;20027;-78
2021/06/26 00:15:48;;;;;;;14.18;6.40;;;14.60;87.30;;;;;;6278277;22;20028;-78
2021/06/26 00:18:16;;;;;;;12.43;6.18;;;14.50;87.60;;;;;;6282454;22;20027;-78
2021/06/26 00:20:45;;;;;;;9.48;6.25;;;14.40;87.70;;;;;;6280875;22;20069;-77
2021/06/26 00:23:13;;;;;;;10.32;5.57;;;14.40;87.80;;;;;;6255020;22;20023;-77
2021/06/26 00:25:41;;;;;;;10.13;6.10;;;14.40;88.00;;;;;;6282452;22;20024;-78
2021/06/26 00:28:08;;;;;;;9.30;5.88;;;14.40;87.90;;;;;;6280979;22;20074;-78
2021/06/26 00:30:37;;;;;;;9.88;5.60;;;14.40;87.80;;;;;;6280604;22;20075;-78
2021/06/26 00:33:04;;;;;;;10.13;4.88;;;14.40;87.90;;;;;;6281381;22;20035;-78
2021/06/26 00:35:32;;;;;;;10.45;5.75;;;14.40;87.80;;;;;;6282271;22;20032;-77
2021/06/26 00:38:00;;;;;;;9.88;5.22;;;14.50;87.40;;;;;;6281534;22;20218;-78
2021/06/26 00:40:28;;;;;;;11.52;5.68;;;14.40;87.50;;;;;;6276772;22;20018;-78
2021/06/26 00:42:55;;;;;;;10.00;5.28;;;14.40;87.40;;;;;;6281106;22;20240;-79
2021/06/26 00:45:22;;;;;;;11.75;5.97;;;14.40;87.30;;;;;;6280602;22;20027;-77
2021/06/26 00:47:54;;;;;;;12.02;5.80;;;14.30;87.60;;;;;;6254680;22;20200;-78
2021/06/26 00:50:23;;;;;;;12.18;5.78;;;14.30;87.70;;;;;;6281376;22;20026;-78
2021/06/26 00:52:51;;;;;;;10.65;5.60;;;14.30;88.00;;;;;;6255948;22;20081;-78
2021/06/26 00:55:20;;;;;;;9.52;5.20;;;14.30;87.90;;;;;;6282226;22;20066;-78
2021/06/26 00:57:53;;;;;;;11.27;5.47;;;14.30;87.90;;;;;;6281845;22;20043;-77
2021/06/26 01:00:21;;;;;;;10.35;5.68;;;14.40;87.50;;;;;;6276650;22;20020;-77
2021/06/26 01:02:49;;;;;;;10.32;5.85;;;14.40;87.50;;;;;;6283251;22;20038;-77
2021/06/26 01:05:17;;;;;;;10.90;5.35;;;14.60;87.50;;;;;;6257196;22;20023;-78
2021/06/26 01:07:46;;;;;;;9.05;6.05;;;14.70;87.40;;;;;;6283701;22;20015;-77
2021/06/26 01:10:14;;;;;;;12.93;6.10;;;14.80;87.40;;;;;;6281548;22;20322;-78
2021/06/26 01:12:42;;;;;;;12.00;6.57;;;14.90;87.10;;;;;;6283713;22;20023;-77
2021/06/26 01:15:11;;;;;;;11.50;6.65;;;15.00;86.50;;;;;;6283548;22;20035;-77
2021/06/26 01:17:38;;;;;;;13.82;7.18;;;15.10;86.30;;;;;;6256342;22;20028;-78
2021/06/26 01:20:08;;;;;;;12.13;6.28;;;15.20;86.30;;;;;;6282520;22;20376;-77
2021/06/26 01:22:42;;;;;;;14.20;7.45;;;15.20;86.20;;;;;;6256572;22;20034;-77
2021/06/26 01:25:11;;;;;;;14.13;6.72;;;15.20;86.40;;;;;;6284920;22;20363;-77
2021/06/26 01:27:39;;;;;;;19.60;8.38;;;15.30;86.20;;;;;;6284298;22;20016;-77
2021/06/26 01:30:07;;;;;;;14.45;8.43;;;15.40;86.20;;;;;;6254736;22;20016;-77
2021/06/26 01:32:34;;;;;;;16.17;8.18;;;15.40;86.40;;;;;;6283672;22;20031;-78
2021/06/26 01:35:04;;;;;;;14.25;7.20;;;15.40;86.40;;;;;;6283961;22;20166;-79
2021/06/26 01:37:31;;;;;;;17.02;9.15;;;15.40;86.50;;;;;;6285256;22;20082;-79
2021/06/26 01:40:00;;;;;;;12.60;7.38;;;15.40;86.80;;;;;;6284945;22;20007;-78
2021/06/26 01:42:30;;;;;;;14.23;7.30;;;15.50;86.90;;;;;;6285769;22;20093;-78
2021/06/26 01:44:57;;;;;;;16.35;8.95;;;15.40;86.90;;;;;;6284277;22;20014;-77
2021/06/26 01:47:24;;;;;;;18.60;8.65;;;15.30;87.50;;;;;;6285638;22;20023;-78
2021/06/26 01:49:51;;;;;;;13.35;7.13;;;15.30;87.60;;;;;;6284245;22;20254;-77
2021/06/26 01:52:19;;;;;;;14.35;7.10;;;15.20;86.20;;;;;;6282993;22;20019;-79
2021/06/26 01:54:46;;;;;;;13.77;7.30;;;15.20;85.80;;;;;;6284914;22;20024;-79
2021/06/26 01:57:15;;;;;;;14.13;6.93;;;15.20;85.90;;;;;;6283023;22;20024;-78
2021/06/26 01:59:42;;;;;;;16.73;7.70;;;15.10;86.10;;;;;;6284241;22;20023;-78
2021/06/26 02:02:09;;;;;;;13.70;6.88;;;15.10;86.70;;;;;;6278256;22;20030;-78
2021/06/26 02:04:37;;;;;;;15.38;7.40;;;15.10;86.60;;;;;;6283006;22;20023;-78
2021/06/26 02:07:04;;;;;;;21.52;7.95;;;15.10;86.50;;;;;;6282204;22;20017;-78
2021/06/26 02:09:31;;;;;;;16.60;7.60;;;15.10;86.70;;;;;;6281005;22;20022;-78
2021/06/26 02:11:58;;;;;;;14.48;8.00;;;15.10;86.60;;;;;;6281805;22;20027;-79
2021/06/26 02:14:27;;;;;;;15.48;8.13;;;15.20;86.90;;;;;;6282569;22;20016;-78
2021/06/26 02:16:54;;;;;;;16.92;8.18;;;15.20;86.90;;;;;;6281530;22;20077;-78
2021/06/26 02:19:21;;;;;;;17.13;8.20;;;15.10;87.00;;;;;;6278319;22;20047;-78
2021/06/26 02:21:48;;;;;;;13.18;7.90;;;15.10;87.20;;;;;;6283158;22;20020;-78
2021/06/26 02:24:16;;;;;;;13.18;7.25;;;15.10;87.10;;;;;;6283432;22;20023;-78
2021/06/26 02:26:43;;;;;;;16.83;8.13;;;15.00;87.00;;;;;;6281083;22;20020;-78
2021/06/26 02:29:13;;;;;;;13.05;7.93;;;15.10;86.90;;;;;;6280669;22;20047;-79
2021/06/26 02:31:41;;;;;;;;;;;15.10;86.70;;;;;;6282004;22;20180;-78
2021/06/26 02:34:15;;;;;;;13.73;7.40;;;15.00;86.90;;;;;;6284234;22;19922;-78
2021/06/26 02:36:43;;;;;;;13.43;7.28;;;14.90;86.80;;;;;;6284165;22;20035;-78
2021/06/26 02:39:10;;;;;;;13.82;7.10;;;14.90;87.00;;;;;;6284271;22;20030;-79
2021/06/26 02:41:37;;;;;;;13.40;7.43;;;14.90;87.10;;;;;;6286261;22;20019;-79
2021/06/26 02:44:05;;;;;;;12.50;6.65;;;14.90;87.00;;;;;;6285059;22;20226;-79
2021/06/26 02:46:36;;;;;;;11.55;6.63;;;15.00;87.00;;;;;;6283468;22;20031;-78
2021/06/26 02:49:05;;;;;;;13.88;7.53;;;15.10;86.70;;;;;;6286526;22;20024;-79
2021/06/26 02:51:32;;;;;;;14.80;8.38;;;15.20;86.40;;;;;;6286065;22;20019;-79
2021/06/26 02:53:59;;;;;;;14.50;7.45;;;15.10;86.40;;;;;;6285099;22;20392;-79
2021/06/26 02:56:26;;;;;;;13.90;7.40;;;15.20;86.50;;;;;;6285796;22;20071;-79
2021/06/26 02:59:04;;;;;;;13.23;8.20;;;15.30;86.40;;;;;;6285853;22;20058;-78
2021/06/26 03:01:32;;;;;;;13.10;7.18;;;15.30;85.80;;;;;;6279146;22;20019;-78
2021/06/26 03:03:59;;;;;;;18.45;8.50;;;15.30;86.00;;;;;;6281954;22;20196;-78
2021/06/26 03:06:27;;;;;;;18.05;8.23;;;15.40;85.40;;;;;;6285278;22;20022;-78
2021/06/26 03:08:55;;;;;;;15.25;8.57;;;15.40;84.80;;;;;;6283265;22;20031;-79
2021/06/26 03:11:22;;;;;;;14.50;8.52;;;15.20;85.30;;;;;;6285646;22;20020;-79
2021/06/26 03:13:50;;;;;;;17.30;8.73;;;15.30;85.30;;;;;;6283999;22;20023;-78
2021/06/26 03:16:17;;;;;;;14.57;8.25;;;15.10;85.70;;;;;;6280488;22;20027;-78
2021/06/26 03:18:45;;;;;;;15.80;8.13;;;14.90;86.60;;;;;;6285273;22;20031;-78
2021/06/26 03:21:12;;;;;;;14.05;7.38;;;14.90;87.00;;;;;;6283946;22;20051;-79
2021/06/26 03:23:42;;;;;;;15.43;7.75;;;14.80;86.80;;;;;;6285397;22;20034;-79
2021/06/26 03:26:09;;;;;;;11.75;6.95;;;14.70;87.00;;;;;;6286690;22;20063;-79
2021/06/26 03:28:37;;;;;;;14.15;7.50;;;14.70;86.90;;;;;;6286536;22;20156;-79
2021/06/26 03:31:04;;;;;;;14.23;7.72;;;14.70;86.90;;;;;;6283349;22;20071;-78
2021/06/26 03:33:39;;;;;;;19.33;7.65;;;14.70;87.10;;;;;;6286299;22;20031;-78
2021/06/26 03:36:07;;;;;;;12.65;7.03;;;14.60;87.10;;;;;;6285073;22;20249;-78
2021/06/26 03:38:35;;;;;;;11.52;6.32;;;14.60;86.90;;;;;;6284090;22;20092;-79
2021/06/26 03:41:03;;;;;;;12.25;7.03;;;14.60;87.00;;;;;;6284732;22;20019;-78
2021/06/26 03:43:30;;;;;;;14.35;6.25;;;14.60;86.80;;;;;;6284475;22;20042;-79
2021/06/26 03:45:58;;;;;;;12.50;7.05;;;14.50;87.10;;;;;;6284478;22;20019;-78
2021/06/26 03:48:25;;;;;;;13.55;7.22;;;14.60;86.80;;;;;;6280999;22;20024;-79
2021/06/26 03:50:52;;;;;;;15.02;7.38;;;14.70;86.70;;;;;;6283924;22;20204;-79
2021/06/26 03:53:20;;;;;;;14.13;7.85;;;14.90;86.70;;;;;;6280629;22;20377;-79
2021/06/26 03:55:52;;;;;;;14.65;7.82;;;15.10;85.90;;;;;;6285297;22;20023;-79
2021/06/26 03:58:25;;;;;;;12.50;6.70;;;15.20;85.50;;;;;;6281966;22;20038;-79
2021/06/26 04:00:54;;;;;;;13.63;7.40;;;15.20;85.20;;;;;;6277162;22;20312;-79
2021/06/26 04:03:21;;;;;;;12.23;7.20;;;15.10;85.00;;;;;;6278643;22;20028;-78
2021/06/26 04:05:49;;;;;;;13.77;7.65;;;14.90;85.70;;;;;;6278863;22;20349;-79
2021/06/26 04:08:16;;;;;;;15.55;7.22;;;15.00;85.90;;;;;;6280192;22;20019;-78
2021/06/26 04:10:45;;;;;;;13.27;7.47;;;15.10;85.60;;;;;;6284055;22;20018;-78
2021/06/26 04:13:12;;;;;;;12.00;6.95;;;15.10;85.50;;;;;;6281124;22;20023;-79
2021/06/26 04:15:41;;;;;;;13.13;6.97;;;15.10;85.40;;;;;;6283074;22;20110;-79
2021/06/26 04:18:08;;;;;;;13.40;7.85;;;15.10;85.50;;;;;;6285062;22;20024;-79
2021/06/26 04:20:36;;;;;;;14.85;8.30;;;15.00;85.30;;;;;;6283646;22;20020;-79
2021/06/26 04:23:03;;;;;;;11.93;7.07;;;14.80;86.20;;;;;;6284705;22;20015;-78
2021/06/26 04:25:30;;;;;;;15.65;7.25;;;15.00;86.10;;;;;;6282899;22;20016;-78
2021/06/26 04:28:06;;;;;;;14.00;7.90;;;15.10;85.70;;;;;;6282686;22;20028;-78
2021/06/26 04:30:34;;;;;;;13.23;7.00;;;15.10;85.50;;;;;;6257949;22;20043;-78
2021/06/26 04:33:03;;;;;;;15.18;8.82;;;15.10;85.70;;;;;;6283727;22;20031;-78
2021/06/26 04:35:31;;;;;;;13.88;7.78;;;15.10;85.40;;;;;;6286154;22;20061;-78
2021/06/26 04:37:59;;;;;;;13.80;7.60;;;15.10;85.50;;;;;;6256735;22;20027;-78
2021/06/26 04:40:27;;;;;;;14.02;7.95;;;15.10;85.40;;;;;;6284950;22;20381;-79
2021/06/26 04:42:55;;;;;;;12.68;7.50;;;15.20;85.20;;;;;;6285886;22;20015;-79
2021/06/26 04:45:22;;;;;;;15.02;7.55;;;15.20;84.90;;;;;;6285575;22;20022;-78
2021/06/26 04:47:50;;;;;;;17.40;7.90;;;15.20;85.30;;;;;;6284372;22;20030;-78
2021/06/26 04:50:19;;;;;;;16.38;8.15;;;15.30;84.80;;;;;;6284463;22;20015;-78
2021/06/26 04:52:47;;;;;;;16.27;9.00;;;15.40;84.70;;;;;;6257869;22;20020;-78
2021/06/26 04:55:14;;;;;;;16.77;8.23;;;15.40;84.50;;;;;;6284173;22;20016;-79
2021/06/26 04:57:42;;;;;;;14.75;8.18;;;15.50;84.10;;;;;;6284144;22;20030;-78
2021/06/26 05:00:12;;;;;;;19.15;9.40;;;15.40;84.30;;;;;;6279604;22;20030;-78
2021/06/26 05:02:39;;;;;;;15.60;8.98;;;15.50;84.10;;;;;;6252104;22;20027;-79
2021/06/26 05:05:07;;;;;;;18.08;9.10;;;15.50;84.20;;;;;;6282091;22;20024;-79
2021/06/26 05:07:35;;;;;;;13.88;8.60;;;15.40;83.70;;;;;;6283165;22;20061;-79
2021/06/26 05:10:03;;;;;;;15.55;8.50;;;15.20;84.80;;;;;;6284177;22;20046;-79
2021/06/26 05:12:33;;;;;;;17.70;8.63;;;15.40;84.30;;;;;;6282634;22;20047;-78
2021/06/26 05:15:00;;;;;;;15.35;8.05;;;15.50;83.90;;;;;;6285560;22;20031;-79
2021/06/26 05:17:28;;;;;;;14.20;8.15;;;15.60;83.80;;;;;;6286317;22;20042;-78
2021/06/26 05:19:56;;;;;;;15.77;8.27;;;15.90;83.20;;;;;;6283995;22;20277;-78
2021/06/26 05:22:23;;;;;;;14.27;7.47;;;16.10;81.70;;;;;;6284985;22;20012;-79
2021/06/26 05:24:53;;;;;;;13.93;8.07;;;16.20;81.80;;;;;;6282527;22;20047;-78
2021/06/26 05:27:20;;;;;;;13.35;7.75;;;16.20;81.70;;;;;;6259372;22;20020;-78
2021/06/26 05:29:48;;;;;;;14.52;8.38;;;16.60;80.40;;;;;;6256051;22;20196;-79
2021/06/26 05:32:15;;;;;;;13.18;6.95;;;16.60;79.80;;;;;;6282277;22;20311;-79
2021/06/26 05:34:43;;;;;;;12.90;7.90;;;16.50;80.30;;;;;;6281559;22;20023;-79
2021/06/26 05:37:11;;;;;;;18.58;9.23;;;16.60;80.10;;;;;;6282308;22;20023;-79
2021/06/26 05:39:38;;;;;;;14.13;7.00;;;16.60;80.20;;;;;;6280862;22;20028;-79
2021/06/26 05:42:10;;;;;;;14.63;8.35;;;16.60;80.60;;;;;;6281783;22;20058;-78
2021/06/26 05:44:37;;;;;;;17.27;9.07;;;16.60;80.00;;;;;;6282815;22;20186;-77
2021/06/26 05:47:05;;;;;;;14.20;8.30;;;16.50;80.50;;;;;;6280330;22;20027;-79
2021/06/26 05:49:32;;;;;;;16.38;8.57;;;16.50;80.60;;;;;;6282706;22;20054;-79
2021/06/26 05:52:00;;;;;;;13.38;8.20;;;16.40;80.40;;;;;;6283591;22;20050;-79
2021/06/26 05:54:27;;;;;;;16.63;8.55;;;16.40;80.70;;;;;;6281861;22;20019;-79
2021/06/26 05:56:54;;;;;;;17.40;9.25;;;16.30;80.50;;;;;;6281093;22;20054;-79
2021/06/26 05:59:23;;;;;;;15.52;8.25;;;16.30;80.80;;;;;;6282495;22;20023;-79
2021/06/26 06:01:50;;;;;;;15.32;8.20;;;16.20;81.30;;;;;;6278728;22;20118;-79
2021/06/26 06:04:17;;;;;;;15.30;8.43;;;16.10;81.90;;;;;;6284169;22;20065;-80
2021/06/26 06:06:44;;;;;;;16.85;8.77;;;16.10;81.80;;;;;;6279932;22;20329;-79
2021/06/26 06:09:12;;;;;;;16.05;9.15;;;16.10;82.10;;;;;;6282831;22;20049;-80
2021/06/26 06:11:39;;;;;;;15.75;8.18;;;16.20;81.90;;;;;;6282152;22;20022;-79
2021/06/26 06:14:06;;;;;;;13.70;8.15;;;16.30;81.30;;;;;;6283578;22;20322;-79
2021/06/26 06:16:36;;;;;;;17.10;8.35;;;16.20;81.70;;;;;;6282719;22;20035;-79
2021/06/26 06:19:04;;;;;;;;;;;16.20;81.80;;;;;;6286050;22;20362;-79
2021/06/26 06:21:33;;;;;;;11.05;6.63;;;16.20;82.60;;;;;;6283600;22;19925;-78
2021/06/26 06:24:00;;;;;;;12.82;7.18;;;16.40;82.10;;;;;;6281809;22;20449;-79
2021/06/26 06:26:27;;;;;;;13.27;7.13;;;16.50;81.60;;;;;;6281294;22;20246;-78
2021/06/26 06:28:55;;;;;;;12.43;7.35;;;16.60;81.10;;;;;;6283820;22;20027;-78
2021/06/26 06:31:22;;;;;;;14.80;7.95;;;16.60;81.40;;;;;;6283705;22;20043;-78
2021/06/26 06:33:50;;;;;;;13.40;7.50;;;16.70;81.30;;;;;;6284027;22;20031;-78
2021/06/26 06:36:19;;;;;;;12.57;7.28;;;16.80;80.80;;;;;;6285303;22;20015;-78
2021/06/26 06:38:47;;;;;;;16.58;7.75;;;16.80;81.00;;;;;;6285245;22;20030;-78
2021/06/26 06:41:16;;;;;;;13.35;7.70;;;16.90;80.60;;;;;;6283234;22;20022;-78
2021/06/26 06:43:43;;;;;;;13.02;8.20;;;16.90;81.20;;;;;;6255501;22;20028;-78
2021/06/26 06:46:13;;;;;;;14.30;7.85;;;16.90;80.80;;;;;;6283365;22;20050;-78
2021/06/26 06:48:40;;;;;;;13.45;7.88;;;17.10;80.60;;;;;;6283422;22;20330;-78
2021/06/26 06:51:08;;;;;;;13.05;8.02;;;17.10;80.90;;;;;;6282273;22;20027;-77
2021/06/26 06:53:39;;;;;;;13.20;7.97;;;17.30;80.60;;;;;;6280883;22;20043;-77
2021/06/26 06:56:06;;;;;;;12.98;7.90;;;17.40;79.90;;;;;;6283487;22;20023;-78
2021/06/26 06:58:34;;;;;;;14.55;7.22;;;17.50;79.80;;;;;;6280919;22;20035;-77
2021/06/26 07:01:01;;;;;;;13.73;8.30;;;17.60;79.00;;;;;;6249645;22;20381;-77
2021/06/26 07:03:33;;;;;;;12.57;6.65;;;17.70;78.40;;;;;;6284008;22;20024;-77
2021/06/26 07:06:00;;;;;;;12.13;7.40;;;17.80;79.10;;;;;;6283676;22;20311;-77
2021/06/26 07:08:30;;;;;;;12.93;7.68;;;18.10;77.70;;;;;;6280914;22;20250;-77
2021/06/26 07:10:57;;;;;;;14.43;8.32;;;18.20;77.10;;;;;;6256350;22;20249;-77
2021/06/26 07:13:25;;;;;;;12.80;8.32;;;18.40;77.20;;;;;;6282466;22;20050;-77
2021/06/26 07:15:53;;;;;;;12.68;7.90;;;18.40;76.40;;;;;;6283178;22;20024;-78
2021/06/26 07:18:21;;;;;;;13.02;8.35;;;18.60;76.40;;;;;;6279931;22;20023;-78
2021/06/26 07:20:48;;;;;;;11.95;7.03;;;18.60;75.40;;;;;;6280968;22;20015;-77
2021/06/26 07:23:15;;;;;;;21.17;7.75;;;18.70;76.50;;;;;;6279375;22;20346;-77
2021/06/26 07:25:44;;;;;;;15.40;9.15;;;19.00;75.70;;;;;;6279225;22;20020;-78
2021/06/26 07:28:12;;;;;;;13.88;8.13;;;19.20;74.50;;;;;;6281176;22;20084;-78
2021/06/26 07:30:39;;;;;;;15.07;8.38;;;19.20;74.80;;;;;;6280823;22;20035;-78
2021/06/26 07:33:06;;;;;;;14.70;8.10;;;19.30;74.50;;;;;;6253456;22;20319;-78
2021/06/26 07:35:33;;;;;;;15.75;9.07;;;19.40;74.80;;;;;;6282555;22;20020;-77
2021/06/26 07:38:01;;;;;;;19.63;9.50;;;19.60;73.60;;;;;;6253561;22;20027;-77
2021/06/26 07:40:32;;;;;;;14.63;8.63;;;19.60;72.80;;;;;;6281866;22;20024;-77
2021/06/26 07:43:01;;;;;;;13.43;8.80;;;19.80;73.20;;;;;;6279224;22;20028;-78
2021/06/26 07:45:28;;;;;;;10.95;6.03;;;20.10;72.90;;;;;;6280754;22;20016;-78
2021/06/26 07:47:55;;;;;;;9.50;4.95;;;20.30;72.10;;;;;;6281330;22;20331;-77
2021/06/26 07:50:23;;;;;;;12.15;7.55;;;20.60;71.40;;;;;;6281880;22;20022;-78
2021/06/26 07:52:50;;;;;;;13.05;6.63;;;20.90;67.80;;;;;;6279443;22;20333;-77
2021/06/26 07:55:17;;;;;;;11.75;6.75;;;20.80;67.10;;;;;;6280733;22;20020;-77
2021/06/26 07:57:44;;;;;;;10.32;6.00;;;20.80;68.10;;;;;;6281297;22;20024;-77
2021/06/26 08:00:14;;;;;;;9.77;4.65;;;20.90;66.60;;;;;;6275214;22;20028;-77
2021/06/26 08:02:42;;;;;;;6.72;4.32;;;21.00;65.10;;;;;;6278635;22;20019;-77
2021/06/26 08:05:09;;;;;;;8.65;4.68;;;21.00;63.40;;;;;;6279442;22;20027;-77
2021/06/26 08:07:36;;;;;;;6.82;4.20;;;21.10;65.40;;;;;;6283971;22;20016;-78
2021/06/26 08:10:04;;;;;;;6.18;3.92;;;21.30;64.60;;;;;;6256920;22;20024;-77
2021/06/26 08:12:32;;;;;;;6.28;3.92;;;21.60;63.90;;;;;;6285152;22;20020;-77
2021/06/26 08:15:01;;;;;;;7.47;3.60;;;21.90;63.70;;;;;;6285281;22;20031;-77
2021/06/26 08:17:30;;;;;;;6.20;4.32;;;22.20;60.30;;;;;;6284998;22;20023;-77
2021/06/26 08:19:57;;;;;;;7.13;4.18;;;22.30;61.10;;;;;;6286290;22;20024;-77
2021/06/26 08:22:24;;;;;;;6.63;4.35;;;22.20;60.50;;;;;;6286540;22;20066;-78
2021/06/26 08:24:51;;;;;;;6.03;3.42;;;22.20;60.30;;;;;;6286775;22;20027;-79
2021/06/26 08:27:18;;;;;;;7.78;4.10;;;22.30;60.50;;;;;;6285351;22;20022;-78
2021/06/26 08:29:46;;;;;;;7.35;3.60;;;22.60;59.90;;;;;;6258949;22;20027;-77
2021/06/26 08:32:13;;;;;;;7.75;4.07;;;22.80;60.90;;;;;;6284437;22;20015;-78
2021/06/26 08:34:41;;;;;;;7.07;4.43;;;22.90;59.10;;;;;;6285096;22;20019;-79
2021/06/26 08:37:08;;;;;;;7.45;4.15;;;22.80;57.50;;;;;;6284835;22;20043;-79
2021/06/26 08:39:36;;;;;;;7.57;4.03;;;22.70;59.20;;;;;;6286243;22;20207;-79
2021/06/26 08:42:04;;;;;;;5.57;3.90;;;22.90;59.80;;;;;;6284079;22;20346;-79
2021/06/26 08:44:31;;;;;;;7.35;4.10;;;23.10;59.80;;;;;;6285778;22;20094;-79
2021/06/26 08:46:58;;;;;;;6.43;4.00;;;23.30;57.90;;;;;;6285464;22;20039;-79
2021/06/26 08:49:26;;;;;;;8.00;4.25;;;23.40;58.50;;;;;;6286356;22;20020;-79
2021/06/26 08:51:55;;;;;;;6.10;4.28;;;23.60;56.10;;;;;;6286407;22;20083;-79
2021/06/26 08:54:22;;;;;;;7.63;4.07;;;23.60;58.10;;;;;;6287625;22;20071;-79
2021/06/26 08:56:50;;;;;;;5.80;3.80;;;23.90;55.60;;;;;;6291073;22;20023;-79
2021/06/26 08:59:18;;;;;;;5.45;3.53;;;24.00;54.70;;;;;;6286440;22;20042;-79
2021/06/26 09:01:47;;;;;;;7.60;4.00;;;24.10;54.10;;;;;;6279579;22;20270;-79
2021/06/26 09:04:16;;;;;;;5.90;3.37;;;23.90;54.40;;;;;;6258525;22;20315;-78
2021/06/26 09:06:48;;;;;;;7.35;3.60;;;24.10;57.10;;;;;;6256847;22;20444;-79
2021/06/26 09:09:28;;;;;;;5.95;4.03;;;24.50;54.60;;;;;;6284245;22;20023;-79
2021/06/26 09:12:01;;;;;;;7.88;4.30;;;24.70;54.20;;;;;;6284000;22;20023;-79
2021/06/26 09:14:28;;;;;;;6.55;4.22;;;24.90;52.20;;;;;;6285149;22;20030;-79
2021/06/26 09:16:56;;;;;;;6.43;3.85;;;24.70;52.30;;;;;;6282664;22;20278;-79
2021/06/26 09:19:23;;;;;;;6.40;4.25;;;24.50;53.10;;;;;;6282500;22;20020;-79
2021/06/26 09:22:02;;;;;;;6.32;4.03;;;24.20;53.50;;;;;;6285113;22;20042;-79
2021/06/26 09:24:44;;;;;;;7.40;3.60;;;24.00;53.50;;;;;;6257133;22;20043;-79
2021/06/26 09:27:13;;;;;;;21.63;19.92;;;24.00;55.00;;;;;;6284907;22;20027;-79
2021/06/26 09:29:49;;;;;;;6.88;3.88;;;24.60;54.10;;;;;;6283790;22;20342;-79
2021/06/26 09:32:23;;;;;;;7.18;3.97;;;25.00;52.80;;;;;;6257663;22;20016;-79
2021/06/26 09:34:50;;;;;;;5.78;3.80;;;25.30;51.40;;;;;;6284398;22;20310;-80
2021/06/26 09:37:22;;;;;;;5.90;3.30;;;24.90;48.80;;;;;;6284108;22;20015;-78
2021/06/26 09:39:53;;;;;;;5.85;3.33;;;25.00;48.10;;;;;;6284989;22;20028;-79
2021/06/26 09:42:22;;;;;;;5.35;3.42;;;25.20;51.10;;;;;;6284811;22;20011;-79
2021/06/26 09:44:54;;;;;;;7.90;3.93;;;25.90;51.20;;;;;;6286314;22;20287;-79
2021/06/26 09:47:33;;;;;;;7.22;3.40;;;26.10;47.10;;;;;;6285484;22;20024;-79
2021/06/26 09:50:14;;;;;;;5.43;3.47;;;26.30;48.90;;;;;;6286499;22;20019;-78
2021/06/26 09:52:43;;;;;;;5.38;2.92;;;26.40;46.80;;;;;;6285611;22;20015;-77
2021/06/26 09:55:24;;;;;;;7.85;3.38;;;26.60;48.80;;;;;;6286014;22;20033;-77
2021/06/26 09:57:53;;;;;;;5.60;3.03;;;26.00;47.20;;;;;;6259934;22;20027;-77
2021/06/26 10:00:22;;;;;;;5.60;3.17;;;26.40;49.00;;;;;;6282422;22;20222;-77
2021/06/26 10:02:49;;;;;;;5.90;3.50;;;26.20;45.70;;;;;;6288317;22;20019;-77
2021/06/26 10:05:18;;;;;;;5.95;3.10;;;26.10;46.50;;;;;;6287067;22;20227;-78
2021/06/26 10:07:47;;;;;;;5.03;3.27;;;26.50;45.40;;;;;;6260391;22;20031;-79
2021/06/26 10:10:16;;;;;;;16.38;11.23;;;26.80;44.80;;;;;;6288882;22;20456;-79
2021/06/26 10:12:45;;;;;;;8.75;3.95;;;27.20;44.50;;;;;;6288776;22;20019;-78
2021/06/26 10:15:14;;;;;;;6.03;2.93;;;27.70;43.10;;;;;;6262462;22;20047;-78
2021/06/26 10:17:41;;;;;;;7.22;3.03;;;27.10;43.50;;;;;;6286723;22;20023;-78
2021/06/26 10:20:10;;;;;;;5.70;3.13;;;26.80;44.10;;;;;;6288817;22;20319;-79
2021/06/26 10:22:39;;;;;;;6.68;3.38;;;27.60;42.70;;;;;;6289247;22;20019;-79
2021/06/26 10:25:08;;;;;;;5.47;3.30;;;28.20;42.30;;;;;;6289261;22;20207;-78
2021/06/26 10:27:36;;;;;;;4.55;2.90;;;28.60;41.50;;;;;;6288650;22;20024;-78
2021/06/26 10:30:12;;;;;;;4.95;3.10;;;29.00;40.40;;;;;;6289203;22;20023;-78
2021/06/26 10:32:50;;;;;;;4.43;2.70;;;29.20;38.80;;;;;;6289684;22;20012;-79
2021/06/26 10:35:18;;;;;;;5.53;3.17;;;29.30;40.00;;;;;;6261373;22;20105;-78
2021/06/26 10:37:45;;;;;;;6.47;3.10;;;28.90;38.40;;;;;;6261529;22;20330;-78
2021/06/26 10:40:13;;;;;;;5.63;3.28;;;29.10;39.50;;;;;;6261649;22;20041;-78
2021/06/26 10:42:41;;;;;;;6.97;3.30;;;29.70;37.80;;;;;;6285997;22;20042;-78
2021/06/26 10:45:27;;;;;;;6.43;3.33;;;30.50;37.40;;;;;;6261338;22;20347;-78
2021/06/26 10:47:54;;;;;;;4.70;3.30;;;31.00;35.60;;;;;;6284861;22;20077;-78
2021/06/26 10:50:23;;;;;;;4.40;2.75;;;31.20;35.20;;;;;;6262280;22;20026;-78
2021/06/26 10:52:53;;;;;;;5.95;3.65;;;31.90;33.40;;;;;;6288394;22;20046;-79
2021/06/26 10:55:29;;;;;;;4.00;2.90;;;32.60;32.70;;;;;;6286601;22;20024;-78
2021/06/26 10:57:57;;;;;;;5.80;3.03;;;33.30;32.60;;;;;;6259605;22;20038;-78
2021/06/26 11:00:33;;;;;;;4.45;2.85;;;33.60;31.80;;;;;;6282257;22;20015;-79
2021/06/26 11:03:01;;;;;;;6.38;3.40;;;33.30;32.10;;;;;;6286872;22;20026;-79
2021/06/26 11:05:30;;;;;;;5.55;2.90;;;33.10;32.40;;;;;;6286201;22;20050;-78
2021/06/26 11:07:58;;;;;;;5.35;3.13;;;34.10;30.90;;;;;;6286587;22;20223;-78
2021/06/26 11:10:26;;;;;;;4.93;2.83;;;34.00;31.70;;;;;;6286668;22;20220;-78
2021/06/26 11:12:54;;;;;;;4.22;2.70;;;35.80;28.80;;;;;;6259651;22;20023;-79
2021/06/26 11:15:29;;;;;;;4.32;2.67;;;36.60;28.50;;;;;;6286291;22;20310;-78
2021/06/26 11:17:58;;;;;;;6.15;2.97;;;35.90;28.50;;;;;;6287324;22;20058;-79
2021/06/26 11:20:26;;;;;;;4.60;3.00;;;34.30;29.80;;;;;;6283547;22;20350;-78
2021/06/26 11:22:55;;;;;;;4.30;2.65;;;35.20;29.20;;;;;;6286313;22;20011;-78
2021/06/26 11:25:26;;;;;;;5.63;3.03;;;33.90;31.10;;;;;;6285704;22;20281;-78
2021/06/26 11:28:03;;;;;;;6.90;2.75;;;33.40;31.50;;;;;;6284715;22;20204;-77
2021/06/26 11:30:30;;;;;;;4.50;2.55;;;34.20;30.30;;;;;;6254629;22;20101;-78
2021/06/26 11:33:00;;;;;;;4.88;2.65;;;35.40;30.00;;;;;;6256539;22;20079;-77
2021/06/26 11:35:33;;;;;;;5.10;2.78;;;33.50;30.70;;;;;;6256004;22;20020;-78
2021/06/26 11:38:02;;;;;;;5.43;2.85;;;32.20;33.30;;;;;;6282646;22;20075;-77
2021/06/26 11:40:30;;;;;;;4.88;2.78;;;31.20;35.20;;;;;;6284266;22;20016;-78
2021/06/26 11:43:02;;;;;;;6.47;3.38;;;30.30;35.70;;;;;;6283841;22;20024;-78
2021/06/26 11:45:30;;;;;;;5.15;2.92;;;29.80;36.60;;;;;;6259055;22;20020;-78
2021/06/26 11:48:09;;;;;;;4.82;3.08;;;28.90;38.80;;;;;;6286133;22;20091;-78
2021/06/26 11:50:40;;;;;;;5.28;3.10;;;27.60;41.60;;;;;;6284398;22;20031;-78
2021/06/26 11:53:11;;;;;;;4.72;3.10;;;27.90;40.10;;;;;;6286705;22;20018;-78
2021/06/26 11:55:40;;;;;;;6.15;3.00;;;27.20;42.10;;;;;;6258356;22;20020;-78
2021/06/26 11:58:08;;;;;;;;;;;27.30;42.40;;;;;;6285624;22;20102;-78
2021/06/26 12:00:35;;;;;;;6.18;3.53;;;27.60;43.40;;;;;;6249700;22;19911;-78
2021/06/26 12:03:02;;;;;;;4.53;2.75;;;27.30;42.10;;;;;;6283773;22;20015;-78
2021/06/26 12:05:32;;;;;;;5.07;3.13;;;27.40;44.70;;;;;;6281375;22;20027;-78
2021/06/26 12:08:04;;;;;;;5.82;3.30;;;27.50;42.00;;;;;;6287252;22;20023;-78
2021/06/26 12:10:32;;;;;;;5.90;3.42;;;27.50;41.80;;;;;;6267816;22;20357;-78
2021/06/26 12:13:00;;;;;;;3.72;2.47;;;27.30;41.90;;;;;;6288918;22;20071;-78
2021/06/26 12:15:32;;;;;;;5.40;3.30;;;27.60;42.70;;;;;;6258254;22;20042;-79
2021/06/26 12:18:03;;;;;;;6.30;3.17;;;27.60;43.40;;;;;;6257767;22;20028;-78
2021/06/26 12:20:38;;;;;;;4.68;3.03;;;27.30;42.70;;;;;;6283355;22;20223;-78
2021/06/26 12:23:07;;;;;;;8.07;3.75;;;29.50;38.80;;;;;;6283110;22;20019;-78
2021/06/26 12:25:38;;;;;;;5.05;3.10;;;32.80;34.70;;;;;;6283240;22;20042;-77
2021/06/26 12:28:08;;;;;;;5.65;2.85;;;35.40;30.20;;;;;;6256326;22;20034;-77
2021/06/26 12:30:37;;;;;;;4.90;2.90;;;36.80;28.80;;;;;;6285597;22;20250;-77
2021/06/26 12:33:05;;;;;;;;;;;36.20;27.80;;;;;;6256697;22;20272;-78
2021/06/26 12:35:40;;;;;;;3.72;2.67;;;34.60;30.10;;;;;;6257431;22;19942;-78
2021/06/26 12:38:08;;;;;;;5.57;2.88;;;32.10;32.60;;;;;;6284562;22;20030;-77
2021/06/26 12:40:41;;;;;;;7.20;2.70;;;31.70;34.30;;;;;;6282713;22;20074;-77
2021/06/26 12:43:11;;;;;;;7.60;2.95;;;32.00;34.40;;;;;;6280968;22;20216;-78
2021/06/26 12:45:41;;;;;;;5.45;3.33;;;30.70;34.90;;;;;;6279523;22;20028;-77
2021/06/26 12:48:11;;;;;;;4.50;2.85;;;29.80;36.70;;;;;;6281350;22;20026;-77